sensor_id;sensor_type;location;lat;lon;timestamp;P1;durP1;ratioP1;P2;durP2;ratioP2
14241;SDS011;7205;50.864;12.766;2023-05-29T00:01:07;6.27;;;5.67;;
14241;SDS011;7205;50.864;12.766;2023-05-29T00:03:34;5.67;;;5.13;;
14241;SDS011;7205;50.864;12.766;2023-05-29T00:06:03;5.73;;;5.20;;
14241;SDS011;7205;50.864;12.766;2023-05-29T00:08:31;5.17;;;4.77;;
14241;SDS011;7205;50.864;12.766;2023-05-29T00:10:57;5.50;;;4.83;;
14241;SDS011;7205;50.864;12.766;2023-05-29T00:13:25;4.83;;;4.43;;
14241;SDS011;7205;50.864;12.766;2023-05-29T00:15:51;6.23;;;5.10;;
14241;SDS011;7205;50.864;12.766;2023-05-29T00:18:18;5.57;;;4.23;;
14241;SDS011;7205;50.864;12.766;2023-05-29T00:20:46;4.90;;;4.50;;
14241;SDS011;7205;50.864;12.766;2023-05-29T00:23:14;7.03;;;4.60;;
14241;SDS011;7205;50.864;12.766;2023-05-29T00:25:41;4.93;;;4.43;;
14241;SDS011;7205;50.864;12.766;2023-05-29T00:28:07;6.87;;;4.50;;
14241;SDS011;7205;50.864;12.766;2023-05-29T00:30:34;4.73;;;4.40;;
14241;SDS011;7205;50.864;12.766;2023-05-29T00:33:01;4.37;;;4.03;;
14241;SDS011;7205;50.864;12.766;2023-05-29T00:35:28;6.07;;;4.30;;
14241;SDS011;7205;50.864;12.766;2023-05-29T00:37:55;4.67;;;4.10;;
14241;SDS011;7205;50.864;12.766;2023-05-29T00:40:23;4.47;;;4.07;;
14241;SDS011;7205;50.864;12.766;2023-05-29T00:42:50;4.10;;;3.63;;
14241;SDS011;7205;50.864;12.766;2023-05-29T00:45:17;4.30;;;3.90;;
14241;SDS011;7205;50.864;12.766;2023-05-29T00:47:44;5.77;;;4.00;;
14241;SDS011;7205;50.864;12.766;2023-05-29T00:50:11;4.23;;;3.83;;
14241;SDS011;7205;50.864;12.766;2023-05-29T00:52:40;4.93;;;3.97;;
14241;SDS011;7205;50.864;12.766;2023-05-29T00:55:08;4.00;;;3.70;;
14241;SDS011;7205;50.864;12.766;2023-05-29T00:57:37;4.00;;;3.70;;
14241;SDS011;7205;50.864;12.766;2023-05-29T01:00:04;4.70;;;4.00;;
14241;SDS011;7205;50.864;12.766;2023-05-29T01:02:34;4.20;;;3.67;;
14241;SDS011;7205;50.864;12.766;2023-05-29T01:05:02;4.27;;;3.80;;
14241;SDS011;7205;50.864;12.766;2023-05-29T01:07:31;6.33;;;4.07;;
14241;SDS011;7205;50.864;12.766;2023-05-29T01:09:58;5.90;;;3.57;;
14241;SDS011;7205;50.864;12.766;2023-05-29T01:12:30;5.73;;;4.40;;
14241;SDS011;7205;50.864;12.766;2023-05-29T01:15:14;5.83;;;4.00;;
14241;SDS011;7205;50.864;12.766;2023-05-29T01:17:54;3.90;;;3.53;;
14241;SDS011;7205;50.864;12.766;2023-05-29T01:20:44;4.60;;;4.20;;
14241;SDS011;7205;50.864;12.766;2023-05-29T01:26:37;4.60;;;4.13;;
14241;SDS011;7205;50.864;12.766;2023-05-29T01:29:17;5.13;;;4.37;;
14241;SDS011;7205;50.864;12.766;2023-05-29T01:31:46;4.43;;;4.00;;
14241;SDS011;7205;50.864;12.766;2023-05-29T01:34:15;5.30;;;4.13;;
14241;SDS011;7205;50.864;12.766;2023-05-29T01:36:42;5.03;;;4.13;;
14241;SDS011;7205;50.864;12.766;2023-05-29T01:39:11;4.60;;;4.20;;
14241;SDS011;7205;50.864;12.766;2023-05-29T01:41:41;4.00;;;3.70;;
14241;SDS011;7205;50.864;12.766;2023-05-29T01:44:10;7.00;;;4.90;;
14241;SDS011;7205;50.864;12.766;2023-05-29T01:46:38;4.90;;;4.40;;
14241;SDS011;7205;50.864;12.766;2023-05-29T01:49:07;4.73;;;4.33;;
14241;SDS011;7205;50.864;12.766;2023-05-29T01:51:34;4.87;;;4.37;;
14241;SDS011;7205;50.864;12.766;2023-05-29T01:54:02;7.40;;;5.67;;
14241;SDS011;7205;50.864;12.766;2023-05-29T01:56:29;5.33;;;4.60;;
14241;SDS011;7205;50.864;12.766;2023-05-29T01:58:58;6.40;;;4.47;;
14241;SDS011;7205;50.864;12.766;2023-05-29T02:01:28;5.23;;;4.73;;
14241;SDS011;7205;50.864;12.766;2023-05-29T02:03:55;6.10;;;4.53;;
14241;SDS011;7205;50.864;12.766;2023-05-29T02:06:22;6.23;;;4.70;;
14241;SDS011;7205;50.864;12.766;2023-05-29T02:08:50;5.97;;;4.93;;
14241;SDS011;7205;50.864;12.766;2023-05-29T02:11:18;5.13;;;4.20;;
14241;SDS011;7205;50.864;12.766;2023-05-29T02:13:45;5.13;;;4.63;;
14241;SDS011;7205;50.864;12.766;2023-05-29T02:16:14;5.23;;;4.77;;
14241;SDS011;7205;50.864;12.766;2023-05-29T02:18:42;6.07;;;4.63;;
14241;SDS011;7205;50.864;12.766;2023-05-29T02:21:09;4.77;;;4.27;;
14241;SDS011;7205;50.864;12.766;2023-05-29T02:23:36;4.60;;;4.20;;
14241;SDS011;7205;50.864;12.766;2023-05-29T02:26:03;6.07;;;4.97;;
14241;SDS011;7205;50.864;12.766;2023-05-29T02:28:30;6.70;;;4.50;;
14241;SDS011;7205;50.864;12.766;2023-05-29T02:30:57;6.47;;;4.90;;
14241;SDS011;7205;50.864;12.766;2023-05-29T02:33:25;4.60;;;4.20;;
14241;SDS011;7205;50.864;12.766;2023-05-29T02:35:53;5.87;;;5.23;;
14241;SDS011;7205;50.864;12.766;2023-05-29T02:38:20;5.47;;;4.57;;
14241;SDS011;7205;50.864;12.766;2023-05-29T02:40:46;5.60;;;4.70;;
14241;SDS011;7205;50.864;12.766;2023-05-29T02:43:13;6.07;;;4.63;;
14241;SDS011;7205;50.864;12.766;2023-05-29T02:45:40;5.63;;;4.73;;
14241;SDS011;7205;50.864;12.766;2023-05-29T02:48:07;5.47;;;4.93;;
14241;SDS011;7205;50.864;12.766;2023-05-29T02:50:35;5.03;;;4.53;;
14241;SDS011;7205;50.864;12.766;2023-05-29T02:53:02;7.73;;;4.87;;
14241;SDS011;7205;50.864;12.766;2023-05-29T02:55:29;5.07;;;4.33;;
14241;SDS011;7205;50.864;12.766;2023-05-29T02:57:57;5.93;;;4.57;;
14241;SDS011;7205;50.864;12.766;2023-05-29T03:00:25;6.97;;;4.80;;
14241;SDS011;7205;50.864;12.766;2023-05-29T03:02:56;5.23;;;4.57;;
14241;SDS011;7205;50.864;12.766;2023-05-29T03:05:23;4.83;;;4.33;;
14241;SDS011;7205;50.864;12.766;2023-05-29T03:07:53;5.97;;;4.57;;
14241;SDS011;7205;50.864;12.766;2023-05-29T03:10:20;5.73;;;4.20;;
14241;SDS011;7205;50.864;12.766;2023-05-29T03:12:47;5.77;;;4.83;;
14241;SDS011;7205;50.864;12.766;2023-05-29T03:15:15;8.27;;;5.50;;
14241;SDS011;7205;50.864;12.766;2023-05-29T03:17:42;5.77;;;5.20;;
14241;SDS011;7205;50.864;12.766;2023-05-29T03:20:13;6.17;;;4.90;;
14241;SDS011;7205;50.864;12.766;2023-05-29T03:22:40;4.77;;;4.30;;
14241;SDS011;7205;50.864;12.766;2023-05-29T03:25:12;5.97;;;5.43;;
14241;SDS011;7205;50.864;12.766;2023-05-29T03:27:39;5.63;;;5.10;;
14241;SDS011;7205;50.864;12.766;2023-05-29T03:30:11;5.80;;;5.30;;
14241;SDS011;7205;50.864;12.766;2023-05-29T03:32:39;7.80;;;5.47;;
14241;SDS011;7205;50.864;12.766;2023-05-29T03:35:06;7.30;;;5.37;;
14241;SDS011;7205;50.864;12.766;2023-05-29T03:37:36;5.10;;;4.60;;
14241;SDS011;7205;50.864;12.766;2023-05-29T03:40:03;4.93;;;4.50;;
14241;SDS011;7205;50.864;12.766;2023-05-29T03:42:33;5.00;;;4.50;;
14241;SDS011;7205;50.864;12.766;2023-05-29T03:45:00;8.00;;;4.73;;
14241;SDS011;7205;50.864;12.766;2023-05-29T03:47:28;6.77;;;5.57;;
14241;SDS011;7205;50.864;12.766;2023-05-29T03:49:55;5.73;;;5.17;;
14241;SDS011;7205;50.864;12.766;2023-05-29T03:52:22;6.63;;;5.13;;
14241;SDS011;7205;50.864;12.766;2023-05-29T03:54:49;5.97;;;5.30;;
14241;SDS011;7205;50.864;12.766;2023-05-29T03:57:16;5.60;;;5.10;;
14241;SDS011;7205;50.864;12.766;2023-05-29T03:59:45;5.83;;;5.13;;
14241;SDS011;7205;50.864;12.766;2023-05-29T04:02:12;5.30;;;4.80;;
14241;SDS011;7205;50.864;12.766;2023-05-29T04:04:40;5.70;;;5.10;;
14241;SDS011;7205;50.864;12.766;2023-05-29T04:07:06;6.20;;;5.00;;
14241;SDS011;7205;50.864;12.766;2023-05-29T04:09:33;6.77;;;4.97;;
14241;SDS011;7205;50.864;12.766;2023-05-29T04:12:00;5.40;;;4.70;;
14241;SDS011;7205;50.864;12.766;2023-05-29T04:14:28;6.97;;;5.20;;
14241;SDS011;7205;50.864;12.766;2023-05-29T04:16:57;5.77;;;5.27;;
14241;SDS011;7205;50.864;12.766;2023-05-29T04:19:23;5.60;;;5.07;;
14241;SDS011;7205;50.864;12.766;2023-05-29T04:21:51;5.50;;;5.10;;
14241;SDS011;7205;50.864;12.766;2023-05-29T04:24:18;6.87;;;6.00;;
14241;SDS011;7205;50.864;12.766;2023-05-29T04:26:45;6.20;;;4.80;;
14241;SDS011;7205;50.864;12.766;2023-05-29T04:29:12;5.77;;;5.13;;
14241;SDS011;7205;50.864;12.766;2023-05-29T04:31:39;5.57;;;5.07;;
14241;SDS011;7205;50.864;12.766;2023-05-29T04:34:08;5.63;;;5.17;;
14241;SDS011;7205;50.864;12.766;2023-05-29T04:36:39;5.97;;;5.27;;
14241;SDS011;7205;50.864;12.766;2023-05-29T04:39:09;5.40;;;4.83;;
14241;SDS011;7205;50.864;12.766;2023-05-29T04:41:36;8.00;;;5.17;;
14241;SDS011;7205;50.864;12.766;2023-05-29T04:44:06;6.30;;;5.00;;
14241;SDS011;7205;50.864;12.766;2023-05-29T04:46:42;7.70;;;4.97;;
14241;SDS011;7205;50.864;12.766;2023-05-29T04:49:11;5.23;;;4.73;;
14241;SDS011;7205;50.864;12.766;2023-05-29T04:51:38;6.27;;;5.67;;
14241;SDS011;7205;50.864;12.766;2023-05-29T04:54:05;7.13;;;4.80;;
14241;SDS011;7205;50.864;12.766;2023-05-29T04:56:34;5.03;;;4.73;;
14241;SDS011;7205;50.864;12.766;2023-05-29T04:59:02;6.60;;;4.63;;
14241;SDS011;7205;50.864;12.766;2023-05-29T05:01:29;14.07;;;5.37;;
14241;SDS011;7205;50.864;12.766;2023-05-29T05:03:59;6.77;;;5.60;;
14241;SDS011;7205;50.864;12.766;2023-05-29T05:06:27;5.57;;;5.07;;
14241;SDS011;7205;50.864;12.766;2023-05-29T05:08:54;5.50;;;5.00;;
14241;SDS011;7205;50.864;12.766;2023-05-29T05:11:22;7.20;;;4.70;;
14241;SDS011;7205;50.864;12.766;2023-05-29T05:13:50;7.90;;;4.87;;
14241;SDS011;7205;50.864;12.766;2023-05-29T05:16:17;5.00;;;4.60;;
14241;SDS011;7205;50.864;12.766;2023-05-29T05:18:44;5.77;;;5.27;;
14241;SDS011;7205;50.864;12.766;2023-05-29T05:21:11;5.57;;;4.93;;
14241;SDS011;7205;50.864;12.766;2023-05-29T05:23:40;5.20;;;4.57;;
14241;SDS011;7205;50.864;12.766;2023-05-29T05:26:09;5.57;;;5.07;;
14241;SDS011;7205;50.864;12.766;2023-05-29T05:28:37;6.67;;;5.13;;
14241;SDS011;7205;50.864;12.766;2023-05-29T05:31:06;5.17;;;4.73;;
14241;SDS011;7205;50.864;12.766;2023-05-29T05:33:34;6.07;;;4.90;;
14241;SDS011;7205;50.864;12.766;2023-05-29T05:36:02;5.13;;;4.50;;
14241;SDS011;7205;50.864;12.766;2023-05-29T05:38:29;5.00;;;4.47;;
14241;SDS011;7205;50.864;12.766;2023-05-29T05:40:58;5.10;;;4.33;;
14241;SDS011;7205;50.864;12.766;2023-05-29T05:43:29;6.17;;;4.00;;
14241;SDS011;7205;50.864;12.766;2023-05-29T05:46:07;4.60;;;4.20;;
14241;SDS011;7205;50.864;12.766;2023-05-29T05:48:35;6.33;;;4.60;;
14241;SDS011;7205;50.864;12.766;2023-05-29T05:51:02;4.87;;;4.30;;
14241;SDS011;7205;50.864;12.766;2023-05-29T05:53:30;7.20;;;5.03;;
14241;SDS011;7205;50.864;12.766;2023-05-29T05:55:58;5.80;;;5.30;;
14241;SDS011;7205;50.864;12.766;2023-05-29T05:58:26;6.83;;;6.10;;
14241;SDS011;7205;50.864;12.766;2023-05-29T06:00:53;7.43;;;6.60;;
14241;SDS011;7205;50.864;12.766;2023-05-29T06:03:20;6.67;;;6.10;;
14241;SDS011;7205;50.864;12.766;2023-05-29T06:05:58;7.37;;;6.43;;
14241;SDS011;7205;50.864;12.766;2023-05-29T06:08:25;7.13;;;6.43;;
14241;SDS011;7205;50.864;12.766;2023-05-29T06:10:52;6.83;;;6.23;;
14241;SDS011;7205;50.864;12.766;2023-05-29T06:13:21;8.47;;;6.10;;
14241;SDS011;7205;50.864;12.766;2023-05-29T06:15:52;8.50;;;6.43;;
14241;SDS011;7205;50.864;12.766;2023-05-29T06:18:19;6.83;;;6.27;;
14241;SDS011;7205;50.864;12.766;2023-05-29T06:20:46;6.63;;;5.93;;
14241;SDS011;7205;50.864;12.766;2023-05-29T06:23:13;6.50;;;6.00;;
14241;SDS011;7205;50.864;12.766;2023-05-29T06:25:40;6.73;;;5.80;;
14241;SDS011;7205;50.864;12.766;2023-05-29T06:28:08;5.87;;;5.37;;
14241;SDS011;7205;50.864;12.766;2023-05-29T06:30:37;5.23;;;4.73;;
14241;SDS011;7205;50.864;12.766;2023-05-29T06:33:06;5.50;;;5.03;;
14241;SDS011;7205;50.864;12.766;2023-05-29T06:35:36;6.77;;;4.97;;
14241;SDS011;7205;50.864;12.766;2023-05-29T06:38:03;6.00;;;5.50;;
14241;SDS011;7205;50.864;12.766;2023-05-29T06:40:30;5.50;;;4.73;;
14241;SDS011;7205;50.864;12.766;2023-05-29T06:43:00;4.60;;;4.20;;
14241;SDS011;7205;50.864;12.766;2023-05-29T06:45:48;5.67;;;4.70;;
14241;SDS011;7205;50.864;12.766;2023-05-29T06:48:16;5.13;;;4.60;;
14241;SDS011;7205;50.864;12.766;2023-05-29T06:50:45;4.77;;;4.27;;
14241;SDS011;7205;50.864;12.766;2023-05-29T06:53:35;4.67;;;4.27;;
14241;SDS011;7205;50.864;12.766;2023-05-29T06:56:02;4.87;;;4.00;;
14241;SDS011;7205;50.864;12.766;2023-05-29T06:58:29;5.10;;;4.50;;
14241;SDS011;7205;50.864;12.766;2023-05-29T07:01:01;4.43;;;4.03;;
14241;SDS011;7205;50.864;12.766;2023-05-29T07:03:31;4.63;;;3.97;;
14241;SDS011;7205;50.864;12.766;2023-05-29T07:06:00;4.43;;;4.03;;
14241;SDS011;7205;50.864;12.766;2023-05-29T07:08:27;5.47;;;4.17;;
14241;SDS011;7205;50.864;12.766;2023-05-29T07:10:54;6.17;;;4.40;;
14241;SDS011;7205;50.864;12.766;2023-05-29T07:13:23;4.50;;;4.10;;
14241;SDS011;7205;50.864;12.766;2023-05-29T07:15:51;4.87;;;4.27;;
14241;SDS011;7205;50.864;12.766;2023-05-29T07:18:26;4.80;;;4.37;;
14241;SDS011;7205;50.864;12.766;2023-05-29T07:20:53;4.50;;;4.10;;
14241;SDS011;7205;50.864;12.766;2023-05-29T07:23:24;4.80;;;4.30;;
14241;SDS011;7205;50.864;12.766;2023-05-29T07:25:52;4.97;;;4.57;;
14241;SDS011;7205;50.864;12.766;2023-05-29T07:28:19;4.73;;;4.33;;
14241;SDS011;7205;50.864;12.766;2023-05-29T07:30:46;6.67;;;5.17;;
14241;SDS011;7205;50.864;12.766;2023-05-29T07:33:13;6.00;;;4.83;;
14241;SDS011;7205;50.864;12.766;2023-05-29T07:35:41;5.00;;;4.50;;
14241;SDS011;7205;50.864;12.766;2023-05-29T07:38:08;4.60;;;4.30;;
14241;SDS011;7205;50.864;12.766;2023-05-29T07:40:37;6.10;;;3.63;;
14241;SDS011;7205;50.864;12.766;2023-05-29T07:43:03;4.73;;;4.33;;
14241;SDS011;7205;50.864;12.766;2023-05-29T07:45:43;4.00;;;3.70;;
14241;SDS011;7205;50.864;12.766;2023-05-29T07:48:12;7.07;;;4.23;;
14241;SDS011;7205;50.864;12.766;2023-05-29T07:50:42;4.90;;;4.50;;
14241;SDS011;7205;50.864;12.766;2023-05-29T07:53:09;6.37;;;4.13;;
14241;SDS011;7205;50.864;12.766;2023-05-29T07:55:38;4.37;;;3.67;;
14241;SDS011;7205;50.864;12.766;2023-05-29T07:58:05;5.47;;;3.80;;
14241;SDS011;7205;50.864;12.766;2023-05-29T08:00:32;6.90;;;4.23;;
14241;SDS011;7205;50.864;12.766;2023-05-29T08:03:01;4.53;;;4.13;;
14241;SDS011;7205;50.864;12.766;2023-05-29T08:05:48;6.67;;;3.63;;
14241;SDS011;7205;50.864;12.766;2023-05-29T08:08:18;4.10;;;3.80;;
14241;SDS011;7205;50.864;12.766;2023-05-29T08:10:45;4.13;;;3.60;;
14241;SDS011;7205;50.864;12.766;2023-05-29T08:13:12;15.57;;;13.07;;
14241;SDS011;7205;50.864;12.766;2023-05-29T08:15:40;3.73;;;3.43;;
14241;SDS011;7205;50.864;12.766;2023-05-29T08:18:07;4.60;;;3.00;;
14241;SDS011;7205;50.864;12.766;2023-05-29T08:20:34;4.80;;;2.90;;
14241;SDS011;7205;50.864;12.766;2023-05-29T08:23:02;3.40;;;3.10;;
14241;SDS011;7205;50.864;12.766;2023-05-29T08:25:28;2.93;;;2.73;;
14241;SDS011;7205;50.864;12.766;2023-05-29T08:27:55;4.30;;;3.30;;
14241;SDS011;7205;50.864;12.766;2023-05-29T08:30:25;5.57;;;3.47;;
14241;SDS011;7205;50.864;12.766;2023-05-29T08:32:51;3.70;;;3.37;;
14241;SDS011;7205;50.864;12.766;2023-05-29T08:35:18;3.63;;;2.80;;
14241;SDS011;7205;50.864;12.766;2023-05-29T08:37:45;3.70;;;3.40;;
14241;SDS011;7205;50.864;12.766;2023-05-29T08:40:13;3.77;;;3.40;;
14241;SDS011;7205;50.864;12.766;2023-05-29T08:42:43;4.37;;;3.60;;
14241;SDS011;7205;50.864;12.766;2023-05-29T08:45:13;4.23;;;3.30;;
14241;SDS011;7205;50.864;12.766;2023-05-29T08:47:40;3.60;;;3.30;;
14241;SDS011;7205;50.864;12.766;2023-05-29T08:50:07;4.70;;;3.00;;
14241;SDS011;7205;50.864;12.766;2023-05-29T08:52:35;6.07;;;2.97;;
14241;SDS011;7205;50.864;12.766;2023-05-29T08:55:04;6.10;;;3.10;;
14241;SDS011;7205;50.864;12.766;2023-05-29T08:57:33;5.43;;;3.40;;
14241;SDS011;7205;50.864;12.766;2023-05-29T09:00:01;3.93;;;3.60;;
14241;SDS011;7205;50.864;12.766;2023-05-29T09:02:35;3.23;;;2.93;;
14241;SDS011;7205;50.864;12.766;2023-05-29T09:05:02;5.00;;;3.17;;
14241;SDS011;7205;50.864;12.766;2023-05-29T09:07:31;2.83;;;2.63;;
14241;SDS011;7205;50.864;12.766;2023-05-29T09:09:58;5.07;;;2.83;;
14241;SDS011;7205;50.864;12.766;2023-05-29T09:12:25;3.70;;;2.70;;
14241;SDS011;7205;50.864;12.766;2023-05-29T09:14:54;6.80;;;2.90;;
14241;SDS011;7205;50.864;12.766;2023-05-29T09:17:21;3.30;;;2.83;;
14241;SDS011;7205;50.864;12.766;2023-05-29T09:19:48;2.90;;;2.70;;
14241;SDS011;7205;50.864;12.766;2023-05-29T09:22:14;3.23;;;2.77;;
14241;SDS011;7205;50.864;12.766;2023-05-29T09:24:42;4.07;;;2.43;;
14241;SDS011;7205;50.864;12.766;2023-05-29T09:27:12;3.37;;;3.00;;
14241;SDS011;7205;50.864;12.766;2023-05-29T09:29:39;4.13;;;3.10;;
14241;SDS011;7205;50.864;12.766;2023-05-29T09:32:09;4.57;;;3.00;;
14241;SDS011;7205;50.864;12.766;2023-05-29T09:34:36;2.87;;;2.67;;
14241;SDS011;7205;50.864;12.766;2023-05-29T09:37:04;5.00;;;2.70;;
14241;SDS011;7205;50.864;12.766;2023-05-29T09:39:34;2.90;;;2.57;;
14241;SDS011;7205;50.864;12.766;2023-05-29T09:42:10;4.07;;;2.40;;
14241;SDS011;7205;50.864;12.766;2023-05-29T09:44:37;3.10;;;2.90;;
14241;SDS011;7205;50.864;12.766;2023-05-29T09:47:06;2.93;;;2.63;;
14241;SDS011;7205;50.864;12.766;2023-05-29T09:49:35;2.93;;;2.70;;
14241;SDS011;7205;50.864;12.766;2023-05-29T09:52:07;3.10;;;2.90;;
14241;SDS011;7205;50.864;12.766;2023-05-29T09:54:34;2.90;;;2.70;;
14241;SDS011;7205;50.864;12.766;2023-05-29T09:57:01;3.20;;;2.73;;
14241;SDS011;7205;50.864;12.766;2023-05-29T09:59:30;2.70;;;2.50;;
14241;SDS011;7205;50.864;12.766;2023-05-29T10:02:00;3.87;;;2.70;;
14241;SDS011;7205;50.864;12.766;2023-05-29T10:04:29;5.23;;;2.80;;
14241;SDS011;7205;50.864;12.766;2023-05-29T10:06:59;3.50;;;2.60;;
14241;SDS011;7205;50.864;12.766;2023-05-29T10:09:30;3.17;;;2.70;;
14241;SDS011;7205;50.864;12.766;2023-05-29T10:12:00;3.60;;;2.73;;
14241;SDS011;7205;50.864;12.766;2023-05-29T10:14:30;4.90;;;2.93;;
14241;SDS011;7205;50.864;12.766;2023-05-29T10:16:58;3.80;;;2.60;;
14241;SDS011;7205;50.864;12.766;2023-05-29T10:19:29;3.90;;;2.50;;
14241;SDS011;7205;50.864;12.766;2023-05-29T10:21:59;2.77;;;2.47;;
14241;SDS011;7205;50.864;12.766;2023-05-29T10:24:28;5.50;;;3.73;;
14241;SDS011;7205;50.864;12.766;2023-05-29T10:26:56;3.47;;;2.30;;
14241;SDS011;7205;50.864;12.766;2023-05-29T10:29:25;3.47;;;2.30;;
14241;SDS011;7205;50.864;12.766;2023-05-29T10:32:07;2.43;;;2.23;;
14241;SDS011;7205;50.864;12.766;2023-05-29T10:34:56;4.50;;;2.53;;
14241;SDS011;7205;50.864;12.766;2023-05-29T10:37:35;4.33;;;2.30;;
14241;SDS011;7205;50.864;12.766;2023-05-29T10:40:08;3.23;;;2.47;;
14241;SDS011;7205;50.864;12.766;2023-05-29T10:42:41;2.77;;;2.57;;
14241;SDS011;7205;50.864;12.766;2023-05-29T10:51:04;4.33;;;2.90;;
14241;SDS011;7205;50.864;12.766;2023-05-29T10:53:33;3.13;;;2.57;;
14241;SDS011;7205;50.864;12.766;2023-05-29T10:56:07;2.67;;;2.40;;
14241;SDS011;7205;50.864;12.766;2023-05-29T10:58:43;3.40;;;1.93;;
14241;SDS011;7205;50.864;12.766;2023-05-29T11:01:28;2.03;;;1.90;;
14241;SDS011;7205;50.864;12.766;2023-05-29T11:06:59;4.53;;;2.20;;
14241;SDS011;7205;50.864;12.766;2023-05-29T11:09:31;2.40;;;2.20;;
14241;SDS011;7205;50.864;12.766;2023-05-29T11:12:13;2.53;;;2.00;;
14241;SDS011;7205;50.864;12.766;2023-05-29T11:14:54;4.67;;;2.13;;
14241;SDS011;7205;50.864;12.766;2023-05-29T11:17:32;2.90;;;2.17;;
14241;SDS011;7205;50.864;12.766;2023-05-29T11:20:10;3.00;;;2.30;;
14241;SDS011;7205;50.864;12.766;2023-05-29T11:22:56;2.10;;;2.00;;
14241;SDS011;7205;50.864;12.766;2023-05-29T11:25:30;4.27;;;2.30;;
14241;SDS011;7205;50.864;12.766;2023-05-29T11:27:59;2.60;;;2.40;;
14241;SDS011;7205;50.864;12.766;2023-05-29T11:30:26;2.50;;;2.30;;
14241;SDS011;7205;50.864;12.766;2023-05-29T11:32:58;2.83;;;2.60;;
14241;SDS011;7205;50.864;12.766;2023-05-29T11:35:30;2.77;;;2.30;;
14241;SDS011;7205;50.864;12.766;2023-05-29T11:38:00;2.47;;;2.27;;
14241;SDS011;7205;50.864;12.766;2023-05-29T11:40:29;2.47;;;2.23;;
14241;SDS011;7205;50.864;12.766;2023-05-29T11:43:02;2.33;;;2.13;;
14241;SDS011;7205;50.864;12.766;2023-05-29T11:45:31;2.85;;;2.25;;
14241;SDS011;7205;50.864;12.766;2023-05-29T11:47:59;2.40;;;2.20;;
14241;SDS011;7205;50.864;12.766;2023-05-29T11:50:27;2.83;;;2.10;;
14241;SDS011;7205;50.864;12.766;2023-05-29T11:52:55;2.58;;;1.88;;
14241;SDS011;7205;50.864;12.766;2023-05-29T11:55:24;6.25;;;2.08;;
14241;SDS011;7205;50.864;12.766;2023-05-29T11:57:56;5.28;;;2.30;;
14241;SDS011;7205;50.864;12.766;2023-05-29T12:00:24;5.05;;;1.95;;
14241;SDS011;7205;50.864;12.766;2023-05-29T12:02:52;2.20;;;2.00;;
14241;SDS011;7205;50.864;12.766;2023-05-29T12:05:18;4.15;;;2.35;;
14241;SDS011;7205;50.864;12.766;2023-05-29T12:07:49;2.25;;;2.10;;
14241;SDS011;7205;50.864;12.766;2023-05-29T12:10:17;3.65;;;2.03;;
14241;SDS011;7205;50.864;12.766;2023-05-29T12:12:47;4.03;;;2.17;;
14241;SDS011;7205;50.864;12.766;2023-05-29T12:15:16;3.63;;;2.10;;
14241;SDS011;7205;50.864;12.766;2023-05-29T12:17:44;2.33;;;2.13;;
14241;SDS011;7205;50.864;12.766;2023-05-29T12:20:11;2.65;;;2.00;;
14241;SDS011;7205;50.864;12.766;2023-05-29T12:22:39;4.32;;;2.40;;
14241;SDS011;7205;50.864;12.766;2023-05-29T12:25:08;2.40;;;2.20;;
14241;SDS011;7205;50.864;12.766;2023-05-29T12:27:37;2.42;;;2.20;;
14241;SDS011;7205;50.864;12.766;2023-05-29T12:30:07;3.60;;;2.00;;
14241;SDS011;7205;50.864;12.766;2023-05-29T12:32:37;2.58;;;2.38;;
14241;SDS011;7205;50.864;12.766;2023-05-29T12:35:12;2.35;;;2.22;;
14241;SDS011;7205;50.864;12.766;2023-05-29T12:37:44;3.42;;;2.38;;
14241;SDS011;7205;50.864;12.766;2023-05-29T12:40:15;4.93;;;2.30;;
14241;SDS011;7205;50.864;12.766;2023-05-29T12:42:43;2.25;;;2.10;;
14241;SDS011;7205;50.864;12.766;2023-05-29T12:45:10;2.30;;;2.10;;
14241;SDS011;7205;50.864;12.766;2023-05-29T12:47:38;2.80;;;2.03;;
14241;SDS011;7205;50.864;12.766;2023-05-29T12:50:23;2.95;;;2.45;;
14241;SDS011;7205;50.864;12.766;2023-05-29T12:52:57;2.58;;;2.38;;
14241;SDS011;7205;50.864;12.766;2023-05-29T12:55:26;3.08;;;2.40;;
14241;SDS011;7205;50.864;12.766;2023-05-29T12:57:53;2.72;;;2.25;;
14241;SDS011;7205;50.864;12.766;2023-05-29T13:00:23;4.60;;;2.20;;
14241;SDS011;7205;50.864;12.766;2023-05-29T13:02:51;2.72;;;2.35;;
14241;SDS011;7205;50.864;12.766;2023-05-29T13:05:18;5.68;;;2.25;;
14241;SDS011;7205;50.864;12.766;2023-05-29T13:07:48;2.78;;;2.47;;
14241;SDS011;7205;50.864;12.766;2023-05-29T13:10:15;2.40;;;2.20;;
14241;SDS011;7205;50.864;12.766;2023-05-29T13:12:42;4.32;;;2.38;;
14241;SDS011;7205;50.864;12.766;2023-05-29T13:15:09;4.32;;;2.30;;
14241;SDS011;7205;50.864;12.766;2023-05-29T13:17:38;4.18;;;2.42;;
14241;SDS011;7205;50.864;12.766;2023-05-29T13:20:09;2.50;;;2.40;;
14241;SDS011;7205;50.864;12.766;2023-05-29T13:22:37;3.97;;;2.13;;
14241;SDS011;7205;50.864;12.766;2023-05-29T13:25:04;2.33;;;2.13;;
14241;SDS011;7205;50.864;12.766;2023-05-29T13:27:32;3.55;;;2.03;;
14241;SDS011;7205;50.864;12.766;2023-05-29T13:30:00;2.40;;;2.30;;
14241;SDS011;7205;50.864;12.766;2023-05-29T13:32:27;3.78;;;2.47;;
14241;SDS011;7205;50.864;12.766;2023-05-29T13:34:54;2.40;;;2.20;;
14241;SDS011;7205;50.864;12.766;2023-05-29T13:37:23;3.00;;;2.33;;
14241;SDS011;7205;50.864;12.766;2023-05-29T13:39:50;2.42;;;2.20;;
14241;SDS011;7205;50.864;12.766;2023-05-29T13:42:17;2.88;;;2.35;;
14241;SDS011;7205;50.864;12.766;2023-05-29T13:44:44;2.67;;;2.45;;
14241;SDS011;7205;50.864;12.766;2023-05-29T13:47:11;2.70;;;2.05;;
14241;SDS011;7205;50.864;12.766;2023-05-29T13:49:38;3.13;;;2.38;;
14241;SDS011;7205;50.864;12.766;2023-05-29T13:52:05;2.75;;;2.35;;
14241;SDS011;7205;50.864;12.766;2023-05-29T13:54:33;4.22;;;2.53;;
14241;SDS011;7205;50.864;12.766;2023-05-29T13:57:01;3.33;;;2.20;;
14241;SDS011;7205;50.864;12.766;2023-05-29T13:59:29;2.72;;;2.42;;
14241;SDS011;7205;50.864;12.766;2023-05-29T14:01:56;4.40;;;2.60;;
14241;SDS011;7205;50.864;12.766;2023-05-29T14:04:23;2.35;;;2.03;;
14241;SDS011;7205;50.864;12.766;2023-05-29T14:06:50;2.13;;;2.00;;
14241;SDS011;7205;50.864;12.766;2023-05-29T14:09:17;4.45;;;2.40;;
14241;SDS011;7205;50.864;12.766;2023-05-29T14:11:53;2.33;;;2.13;;
14241;SDS011;7205;50.864;12.766;2023-05-29T14:14:20;2.50;;;2.30;;
14241;SDS011;7205;50.864;12.766;2023-05-29T14:16:47;4.50;;;2.38;;
14241;SDS011;7205;50.864;12.766;2023-05-29T14:19:14;2.53;;;2.33;;
14241;SDS011;7205;50.864;12.766;2023-05-29T14:21:41;2.50;;;2.30;;
14241;SDS011;7205;50.864;12.766;2023-05-29T14:24:08;3.40;;;2.50;;
14241;SDS011;7205;50.864;12.766;2023-05-29T14:26:35;2.63;;;2.30;;
14241;SDS011;7205;50.864;12.766;2023-05-29T14:29:03;4.45;;;2.55;;
14241;SDS011;7205;50.864;12.766;2023-05-29T14:31:30;2.55;;;2.35;;
14241;SDS011;7205;50.864;12.766;2023-05-29T14:33:56;3.55;;;2.08;;
14241;SDS011;7205;50.864;12.766;2023-05-29T14:36:23;6.30;;;2.80;;
14241;SDS011;7205;50.864;12.766;2023-05-29T14:38:50;5.70;;;2.70;;
14241;SDS011;7205;50.864;12.766;2023-05-29T14:41:17;3.47;;;2.67;;
14241;SDS011;7205;50.864;12.766;2023-05-29T14:43:44;2.90;;;2.63;;
14241;SDS011;7205;50.864;12.766;2023-05-29T14:46:12;4.32;;;3.08;;
14241;SDS011;7205;50.864;12.766;2023-05-29T14:48:39;3.13;;;2.75;;
14241;SDS011;7205;50.864;12.766;2023-05-29T14:51:06;3.42;;;2.42;;
14241;SDS011;7205;50.864;12.766;2023-05-29T14:53:33;2.65;;;2.45;;
14241;SDS011;7205;50.864;12.766;2023-05-29T14:55:59;4.78;;;2.70;;
14241;SDS011;7205;50.864;12.766;2023-05-29T14:58:27;3.40;;;3.10;;
14241;SDS011;7205;50.864;12.766;2023-05-29T15:00:54;4.30;;;2.70;;
14241;SDS011;7205;50.864;12.766;2023-05-29T15:03:22;4.80;;;2.53;;
14241;SDS011;7205;50.864;12.766;2023-05-29T15:05:52;2.63;;;2.42;;
14241;SDS011;7205;50.864;12.766;2023-05-29T15:08:18;6.50;;;4.95;;
14241;SDS011;7205;50.864;12.766;2023-05-29T15:10:45;6.30;;;4.78;;